sensor_id;sensor_type;location;lat;lon;timestamp;temperature;humidity
52415;DHT22;38340;52.964;6.086;2022-12-31T00:01:16;11.40;99.90
52415;DHT22;38340;52.964;6.086;2022-12-31T00:03:42;11.40;99.90
52415;DHT22;38340;52.964;6.086;2022-12-31T00:06:17;11.40;99.90
52415;DHT22;38340;52.964;6.086;2022-12-31T00:08:44;11.30;99.90
52415;DHT22;38340;52.964;6.086;2022-12-31T00:11:10;11.40;99.90
52415;DHT22;38340;52.964;6.086;2022-12-31T00:13:36;11.30;99.90
52415;DHT22;38340;52.964;6.086;2022-12-31T00:16:11;11.40;99.90
52415;DHT22;38340;52.964;6.086;2022-12-31T00:18:37;11.50;99.90
52415;DHT22;38340;52.964;6.086;2022-12-31T00:21:05;11.50;99.90
52415;DHT22;38340;52.964;6.086;2022-12-31T00:23:30;11.60;99.90
52415;DHT22;38340;52.964;6.086;2022-12-31T00:26:01;11.50;99.90
52415;DHT22;38340;52.964;6.086;2022-12-31T00:28:27;11.60;99.90
52415;DHT22;38340;52.964;6.086;2022-12-31T00:30:53;11.60;99.90
52415;DHT22;38340;52.964;6.086;2022-12-31T00:33:19;11.50;99.90
52415;DHT22;38340;52.964;6.086;2022-12-31T00:35:44;11.50;99.90
52415;DHT22;38340;52.964;6.086;2022-12-31T00:38:10;11.50;99.90
52415;DHT22;38340;52.964;6.086;2022-12-31T00:40:36;11.60;99.90
52415;DHT22;38340;52.964;6.086;2022-12-31T00:43:01;11.40;99.90
52415;DHT22;38340;52.964;6.086;2022-12-31T00:45:27;11.60;99.90
52415;DHT22;38340;52.964;6.086;2022-12-31T00:47:53;11.40;99.90
52415;DHT22;38340;52.964;6.086;2022-12-31T00:50:18;11.50;99.90
52415;DHT22;38340;52.964;6.086;2022-12-31T00:52:44;11.40;99.90
52415;DHT22;38340;52.964;6.086;2022-12-31T00:55:10;11.40;99.90
52415;DHT22;38340;52.964;6.086;2022-12-31T00:57:35;11.50;99.90
52415;DHT22;38340;52.964;6.086;2022-12-31T01:00:01;11.50;99.90
52415;DHT22;38340;52.964;6.086;2022-12-31T01:02:27;11.50;99.90
52415;DHT22;38340;52.964;6.086;2022-12-31T01:04:52;11.60;99.90
52415;DHT22;38340;52.964;6.086;2022-12-31T01:07:18;11.50;99.90
52415;DHT22;38340;52.964;6.086;2022-12-31T01:09:44;11.60;99.90
52415;DHT22;38340;52.964;6.086;2022-12-31T01:12:09;11.50;99.90
52415;DHT22;38340;52.964;6.086;2022-12-31T01:14:35;11.40;99.90
52415;DHT22;38340;52.964;6.086;2022-12-31T01:17:01;11.50;99.90
52415;DHT22;38340;52.964;6.086;2022-12-31T01:19:28;11.50;99.90
52415;DHT22;38340;52.964;6.086;2022-12-31T01:21:54;11.50;99.90
52415;DHT22;38340;52.964;6.086;2022-12-31T01:24:20;11.40;99.90
52415;DHT22;38340;52.964;6.086;2022-12-31T01:26:46;11.50;99.90
52415;DHT22;38340;52.964;6.086;2022-12-31T01:29:13;11.40;99.90
52415;DHT22;38340;52.964;6.086;2022-12-31T01:31:39;11.50;99.90
52415;DHT22;38340;52.964;6.086;2022-12-31T01:34:06;11.50;99.90
52415;DHT22;38340;52.964;6.086;2022-12-31T01:36:33;11.40;99.90
52415;DHT22;38340;52.964;6.086;2022-12-31T01:39:01;11.50;99.90
52415;DHT22;38340;52.964;6.086;2022-12-31T01:41:33;11.50;99.90
52415;DHT22;38340;52.964;6.086;2022-12-31T01:46:51;11.50;99.90
52415;DHT22;38340;52.964;6.086;2022-12-31T01:52:41;11.50;99.90
52415;DHT22;38340;52.964;6.086;2022-12-31T01:55:06;11.30;99.90
52415;DHT22;38340;52.964;6.086;2022-12-31T01:57:34;11.40;99.90
52415;DHT22;38340;52.964;6.086;2022-12-31T02:00:01;11.50;99.90
52415;DHT22;38340;52.964;6.086;2022-12-31T02:02:27;11.50;99.90
52415;DHT22;38340;52.964;6.086;2022-12-31T02:04:54;11.40;99.90
52415;DHT22;38340;52.964;6.086;2022-12-31T02:07:22;11.40;99.90
52415;DHT22;38340;52.964;6.086;2022-12-31T02:09:47;11.40;99.90
52415;DHT22;38340;52.964;6.086;2022-12-31T02:12:13;11.30;99.90
52415;DHT22;38340;52.964;6.086;2022-12-31T02:14:48;11.30;99.90
52415;DHT22;38340;52.964;6.086;2022-12-31T02:31:30;11.20;99.90
52415;DHT22;38340;52.964;6.086;2022-12-31T02:34:05;11.20;99.90
52415;DHT22;38340;52.964;6.086;2022-12-31T02:36:36;11.10;99.90
52415;DHT22;38340;52.964;6.086;2022-12-31T02:39:05;11.10;99.90
52415;DHT22;38340;52.964;6.086;2022-12-31T02:41:32;11.10;99.90
52415;DHT22;38340;52.964;6.086;2022-12-31T02:44:33;11.00;99.90
52415;DHT22;38340;52.964;6.086;2022-12-31T02:55:44;10.90;99.90
52415;DHT22;38340;52.964;6.086;2022-12-31T02:58:39;10.80;99.90
52415;DHT22;38340;52.964;6.086;2022-12-31T03:01:31;10.80;99.90
52415;DHT22;38340;52.964;6.086;2022-12-31T03:04:17;10.70;99.90
52415;DHT22;38340;52.964;6.086;2022-12-31T03:07:09;10.90;99.90
52415;DHT22;38340;52.964;6.086;2022-12-31T03:09:36;10.70;99.90
52415;DHT22;38340;52.964;6.086;2022-12-31T03:12:04;10.70;99.90
52415;DHT22;38340;52.964;6.086;2022-12-31T03:14:49;10.80;99.90
52415;DHT22;38340;52.964;6.086;2022-12-31T03:17:15;10.70;99.90
52415;DHT22;38340;52.964;6.086;2022-12-31T03:19:40;10.70;99.90
52415;DHT22;38340;52.964;6.086;2022-12-31T03:22:25;10.70;99.90
52415;DHT22;38340;52.964;6.086;2022-12-31T03:25:00;10.70;99.90
52415;DHT22;38340;52.964;6.086;2022-12-31T03:27:45;10.60;99.90
52415;DHT22;38340;52.964;6.086;2022-12-31T03:30:13;10.60;99.90
52415;DHT22;38340;52.964;6.086;2022-12-31T03:32:39;10.80;99.90
52415;DHT22;38340;52.964;6.086;2022-12-31T03:35:06;10.70;99.90
52415;DHT22;38340;52.964;6.086;2022-12-31T03:37:32;10.60;99.90
52415;DHT22;38340;52.964;6.086;2022-12-31T03:39:58;10.60;99.90
52415;DHT22;38340;52.964;6.086;2022-12-31T03:42:23;10.60;99.90
52415;DHT22;38340;52.964;6.086;2022-12-31T03:44:49;10.80;99.90
52415;DHT22;38340;52.964;6.086;2022-12-31T03:47:15;10.60;99.90
52415;DHT22;38340;52.964;6.086;2022-12-31T03:49:40;10.80;99.90
52415;DHT22;38340;52.964;6.086;2022-12-31T03:52:06;10.70;99.90
52415;DHT22;38340;52.964;6.086;2022-12-31T03:54:33;10.70;99.90
52415;DHT22;38340;52.964;6.086;2022-12-31T03:56:59;10.80;99.90
52415;DHT22;38340;52.964;6.086;2022-12-31T03:59:25;10.80;99.90
52415;DHT22;38340;52.964;6.086;2022-12-31T04:01:50;10.70;99.90
52415;DHT22;38340;52.964;6.086;2022-12-31T04:04:16;10.60;99.90
52415;DHT22;38340;52.964;6.086;2022-12-31T04:06:41;10.80;99.90
52415;DHT22;38340;52.964;6.086;2022-12-31T04:09:07;10.70;99.90
52415;DHT22;38340;52.964;6.086;2022-12-31T04:11:33;10.80;99.90
52415;DHT22;38340;52.964;6.086;2022-12-31T04:13:58;10.80;99.90
52415;DHT22;38340;52.964;6.086;2022-12-31T04:16:24;10.80;99.90
52415;DHT22;38340;52.964;6.086;2022-12-31T04:18:50;10.60;99.90
52415;DHT22;38340;52.964;6.086;2022-12-31T04:21:15;10.80;99.90
52415;DHT22;38340;52.964;6.086;2022-12-31T04:23:41;10.80;99.90
52415;DHT22;38340;52.964;6.086;2022-12-31T04:26:07;10.60;99.90
52415;DHT22;38340;52.964;6.086;2022-12-31T04:28:32;10.70;99.90
52415;DHT22;38340;52.964;6.086;2022-12-31T04:30:58;10.80;99.90
52415;DHT22;38340;52.964;6.086;2022-12-31T04:33:24;10.80;99.90
52415;DHT22;38340;52.964;6.086;2022-12-31T04:35:49;10.80;99.90
52415;DHT22;38340;52.964;6.086;2022-12-31T04:38:15;10.70;99.90
52415;DHT22;38340;52.964;6.086;2022-12-31T04:40:41;10.80;99.90
52415;DHT22;38340;52.964;6.086;2022-12-31T04:43:27;10.80;99.90
52415;DHT22;38340;52.964;6.086;2022-12-31T04:45:53;10.80;99.90
52415;DHT22;38340;52.964;6.086;2022-12-31T04:48:19;10.70;99.90
52415;DHT22;38340;52.964;6.086;2022-12-31T04:50:45;10.80;99.90
52415;DHT22;38340;52.964;6.086;2022-12-31T04:53:11;10.70;99.90
52415;DHT22;38340;52.964;6.086;2022-12-31T04:55:39;10.80;99.90
52415;DHT22;38340;52.964;6.086;2022-12-31T04:58:04;10.70;99.90
52415;DHT22;38340;52.964;6.086;2022-12-31T05:00:31;10.90;99.90
52415;DHT22;38340;52.964;6.086;2022-12-31T05:02:57;10.70;99.90
52415;DHT22;38340;52.964;6.086;2022-12-31T05:05:22;11.00;99.90
52415;DHT22;38340;52.964;6.086;2022-12-31T05:07:48;10.70;99.90
52415;DHT22;38340;52.964;6.086;2022-12-31T05:10:14;10.80;99.90
52415;DHT22;38340;52.964;6.086;2022-12-31T05:12:39;10.80;99.90
52415;DHT22;38340;52.964;6.086;2022-12-31T05:15:06;11.00;99.90
52415;DHT22;38340;52.964;6.086;2022-12-31T05:17:32;10.80;99.90
52415;DHT22;38340;52.964;6.086;2022-12-31T05:19:57;10.90;99.90
52415;DHT22;38340;52.964;6.086;2022-12-31T05:22:23;11.10;99.90
52415;DHT22;38340;52.964;6.086;2022-12-31T05:24:59;10.90;99.90
52415;DHT22;38340;52.964;6.086;2022-12-31T05:27:26;11.00;99.90
52415;DHT22;38340;52.964;6.086;2022-12-31T05:29:52;11.00;99.90
52415;DHT22;38340;52.964;6.086;2022-12-31T05:32:17;11.00;99.90
52415;DHT22;38340;52.964;6.086;2022-12-31T05:34:43;11.00;99.90
52415;DHT22;38340;52.964;6.086;2022-12-31T05:37:09;11.00;99.90
52415;DHT22;38340;52.964;6.086;2022-12-31T05:39:35;10.90;99.90
52415;DHT22;38340;52.964;6.086;2022-12-31T05:42:00;10.80;99.90
52415;DHT22;38340;52.964;6.086;2022-12-31T05:44:26;10.70;99.90
52415;DHT22;38340;52.964;6.086;2022-12-31T05:46:52;10.80;99.90
52415;DHT22;38340;52.964;6.086;2022-12-31T05:49:17;10.90;99.90
52415;DHT22;38340;52.964;6.086;2022-12-31T05:51:43;10.90;99.90
52415;DHT22;38340;52.964;6.086;2022-12-31T05:54:09;10.80;99.90
52415;DHT22;38340;52.964;6.086;2022-12-31T05:56:34;10.70;99.90
52415;DHT22;38340;52.964;6.086;2022-12-31T05:59:00;10.90;99.90
52415;DHT22;38340;52.964;6.086;2022-12-31T06:01:26;10.80;99.90
52415;DHT22;38340;52.964;6.086;2022-12-31T06:03:51;10.70;99.90
52415;DHT22;38340;52.964;6.086;2022-12-31T06:06:17;10.90;99.90
52415;DHT22;38340;52.964;6.086;2022-12-31T06:08:43;10.90;99.90
52415;DHT22;38340;52.964;6.086;2022-12-31T06:11:08;10.80;99.90
52415;DHT22;38340;52.964;6.086;2022-12-31T06:13:34;10.60;99.90
52415;DHT22;38340;52.964;6.086;2022-12-31T06:16:07;10.60;99.90
52415;DHT22;38340;52.964;6.086;2022-12-31T06:18:33;10.60;99.90
52415;DHT22;38340;52.964;6.086;2022-12-31T06:20:59;10.70;99.90
52415;DHT22;38340;52.964;6.086;2022-12-31T06:23:25;10.60;99.90
52415;DHT22;38340;52.964;6.086;2022-12-31T06:25:51;10.70;99.90
52415;DHT22;38340;52.964;6.086;2022-12-31T06:28:17;10.50;99.90
52415;DHT22;38340;52.964;6.086;2022-12-31T06:30:43;10.50;99.90
52415;DHT22;38340;52.964;6.086;2022-12-31T06:33:08;10.60;99.90
52415;DHT22;38340;52.964;6.086;2022-12-31T06:35:34;10.60;99.90
52415;DHT22;38340;52.964;6.086;2022-12-31T06:38:00;10.60;99.90
52415;DHT22;38340;52.964;6.086;2022-12-31T06:40:26;10.60;99.90
52415;DHT22;38340;52.964;6.086;2022-12-31T06:42:51;10.50;99.90
52415;DHT22;38340;52.964;6.086;2022-12-31T06:45:18;10.40;99.90
52415;DHT22;38340;52.964;6.086;2022-12-31T06:47:44;10.30;99.90
52415;DHT22;38340;52.964;6.086;2022-12-31T06:50:10;10.30;99.90
52415;DHT22;38340;52.964;6.086;2022-12-31T06:52:36;10.40;99.90
52415;DHT22;38340;52.964;6.086;2022-12-31T06:55:02;10.30;99.90
52415;DHT22;38340;52.964;6.086;2022-12-31T06:57:28;10.30;99.90
52415;DHT22;38340;52.964;6.086;2022-12-31T06:59:54;10.40;99.90
52415;DHT22;38340;52.964;6.086;2022-12-31T07:02:24;10.40;99.90
52415;DHT22;38340;52.964;6.086;2022-12-31T07:08:03;10.30;99.90
52415;DHT22;38340;52.964;6.086;2022-12-31T07:10:52;10.40;99.90
52415;DHT22;38340;52.964;6.086;2022-12-31T07:13:25;10.30;99.90
52415;DHT22;38340;52.964;6.086;2022-12-31T07:21:37;10.40;99.90
52415;DHT22;38340;52.964;6.086;2022-12-31T07:24:09;10.30;99.90
52415;DHT22;38340;52.964;6.086;2022-12-31T07:27:00;10.30;99.90
52415;DHT22;38340;52.964;6.086;2022-12-31T07:30:28;10.40;99.90
52415;DHT22;38340;52.964;6.086;2022-12-31T07:43:51;10.30;99.90
52415;DHT22;38340;52.964;6.086;2022-12-31T07:46:34;10.50;99.90
52415;DHT22;38340;52.964;6.086;2022-12-31T07:49:03;10.50;99.90
52415;DHT22;38340;52.964;6.086;2022-12-31T07:51:29;10.50;99.90
52415;DHT22;38340;52.964;6.086;2022-12-31T07:53:54;10.50;99.90
52415;DHT22;38340;52.964;6.086;2022-12-31T07:56:20;10.60;99.90
52415;DHT22;38340;52.964;6.086;2022-12-31T07:59:04;10.40;99.90
52415;DHT22;38340;52.964;6.086;2022-12-31T08:01:49;10.40;99.90
52415;DHT22;38340;52.964;6.086;2022-12-31T08:04:26;10.50;99.90
52415;DHT22;38340;52.964;6.086;2022-12-31T08:07:08;10.70;99.90
52415;DHT22;38340;52.964;6.086;2022-12-31T08:09:50;10.60;99.90
52415;DHT22;38340;52.964;6.086;2022-12-31T08:12:22;10.80;99.90
52415;DHT22;38340;52.964;6.086;2022-12-31T08:14:49;10.80;99.90
52415;DHT22;38340;52.964;6.086;2022-12-31T08:17:17;10.60;99.90
52415;DHT22;38340;52.964;6.086;2022-12-31T08:19:43;10.60;99.90
52415;DHT22;38340;52.964;6.086;2022-12-31T08:25:18;10.90;99.90
52415;DHT22;38340;52.964;6.086;2022-12-31T08:30:15;11.00;99.90
52415;DHT22;38340;52.964;6.086;2022-12-31T08:32:52;10.70;99.90
52415;DHT22;38340;52.964;6.086;2022-12-31T08:38:28;10.90;99.90
52415;DHT22;38340;52.964;6.086;2022-12-31T08:49:24;11.30;99.90
52415;DHT22;38340;52.964;6.086;2022-12-31T08:51:51;11.20;99.90
52415;DHT22;38340;52.964;6.086;2022-12-31T08:54:17;11.30;99.90
52415;DHT22;38340;52.964;6.086;2022-12-31T09:04:55;11.90;99.90
52415;DHT22;38340;52.964;6.086;2022-12-31T09:07:37;11.90;99.90
52415;DHT22;38340;52.964;6.086;2022-12-31T09:10:20;11.80;99.90
52415;DHT22;38340;52.964;6.086;2022-12-31T09:15:39;12.20;99.90
52415;DHT22;38340;52.964;6.086;2022-12-31T09:18:07;12.00;99.90
52415;DHT22;38340;52.964;6.086;2022-12-31T09:20:34;12.00;99.90
52415;DHT22;38340;52.964;6.086;2022-12-31T09:23:02;12.10;99.90
52415;DHT22;38340;52.964;6.086;2022-12-31T09:25:29;12.30;99.90
52415;DHT22;38340;52.964;6.086;2022-12-31T09:28:15;12.10;99.90
52415;DHT22;38340;52.964;6.086;2022-12-31T09:31:00;12.10;99.90
52415;DHT22;38340;52.964;6.086;2022-12-31T09:36:45;12.10;99.90
52415;DHT22;38340;52.964;6.086;2022-12-31T09:44:34;12.20;99.90
52415;DHT22;38340;52.964;6.086;2022-12-31T09:58:29;12.60;99.90
52415;DHT22;38340;52.964;6.086;2022-12-31T10:04:05;12.70;99.90
52415;DHT22;38340;52.964;6.086;2022-12-31T10:06:59;12.80;99.90
52415;DHT22;38340;52.964;6.086;2022-12-31T10:09:40;12.90;99.90
52415;DHT22;38340;52.964;6.086;2022-12-31T10:21:27;12.90;99.90
52415;DHT22;38340;52.964;6.086;2022-12-31T10:29:34;12.90;99.90
52415;DHT22;38340;52.964;6.086;2022-12-31T10:32:30;12.90;99.90
52415;DHT22;38340;52.964;6.086;2022-12-31T10:35:27;12.90;99.90
52415;DHT22;38340;52.964;6.086;2022-12-31T10:38:15;12.90;99.90
52415;DHT22;38340;52.964;6.086;2022-12-31T10:49:18;12.90;99.90
52415;DHT22;38340;52.964;6.086;2022-12-31T10:52:14;13.00;99.90
52415;DHT22;38340;52.964;6.086;2022-12-31T11:00:23;13.10;99.90
52415;DHT22;38340;52.964;6.086;2022-12-31T11:03:17;13.10;99.90
52415;DHT22;38340;52.964;6.086;2022-12-31T11:11:44;13.30;99.90
52415;DHT22;38340;52.964;6.086;2022-12-31T11:14:19;13.20;99.90
52415;DHT22;38340;52.964;6.086;2022-12-31T11:25:59;13.30;99.90
52415;DHT22;38340;52.964;6.086;2022-12-31T11:42:40;13.00;99.90
52415;DHT22;38340;52.964;6.086;2022-12-31T11:48:03;13.20;99.90
52415;DHT22;38340;52.964;6.086;2022-12-31T11:50:49;13.10;99.90
52415;DHT22;38340;52.964;6.086;2022-12-31T11:56:21;12.90;99.90
52415;DHT22;38340;52.964;6.086;2022-12-31T11:58:54;13.20;99.90
52415;DHT22;38340;52.964;6.086;2022-12-31T12:01:32;12.90;99.90
52415;DHT22;38340;52.964;6.086;2022-12-31T12:04:01;13.10;99.90
52415;DHT22;38340;52.964;6.086;2022-12-31T12:06:29;12.90;99.90
52415;DHT22;38340;52.964;6.086;2022-12-31T12:08:59;12.90;99.90
52415;DHT22;38340;52.964;6.086;2022-12-31T12:11:32;13.00;99.90
52415;DHT22;38340;52.964;6.086;2022-12-31T12:13:58;13.00;99.90
52415;DHT22;38340;52.964;6.086;2022-12-31T12:16:25;13.00;99.90
52415;DHT22;38340;52.964;6.086;2022-12-31T12:19:06;13.00;99.90
52415;DHT22;38340;52.964;6.086;2022-12-31T12:21:33;13.20;99.90
52415;DHT22;38340;52.964;6.086;2022-12-31T12:24:01;13.10;99.90
52415;DHT22;38340;52.964;6.086;2022-12-31T12:26:39;13.00;99.90
52415;DHT22;38340;52.964;6.086;2022-12-31T12:29:14;13.00;99.90
52415;DHT22;38340;52.964;6.086;2022-12-31T12:31:40;13.10;99.90
52415;DHT22;38340;52.964;6.086;2022-12-31T12:34:22;13.10;99.90
52415;DHT22;38340;52.964;6.086;2022-12-31T12:36:48;13.10;99.90
52415;DHT22;38340;52.964;6.086;2022-12-31T12:39:22;13.00;99.90
52415;DHT22;38340;52.964;6.086;2022-12-31T12:42:02;12.90;99.90
52415;DHT22;38340;52.964;6.086;2022-12-31T12:44:29;13.10;99.90
52415;DHT22;38340;52.964;6.086;2022-12-31T12:46:55;13.10;99.90
52415;DHT22;38340;52.964;6.086;2022-12-31T12:49:31;13.20;99.90
52415;DHT22;38340;52.964;6.086;2022-12-31T12:57:32;13.10;99.90
52415;DHT22;38340;52.964;6.086;2022-12-31T13:00:18;13.20;99.90
52415;DHT22;38340;52.964;6.086;2022-12-31T13:08:53;13.00;99.90
52415;DHT22;38340;52.964;6.086;2022-12-31T13:11:38;12.90;99.90
52415;DHT22;38340;52.964;6.086;2022-12-31T13:20:12;12.80;99.90
52415;DHT22;38340;52.964;6.086;2022-12-31T13:22:50;12.70;99.90
52415;DHT22;38340;52.964;6.086;2022-12-31T13:25:50;12.70;99.90
52415;DHT22;38340;52.964;6.086;2022-12-31T13:28:18;12.50;99.90
52415;DHT22;38340;52.964;6.086;2022-12-31T13:30:50;12.40;99.90
52415;DHT22;38340;52.964;6.086;2022-12-31T13:33:21;12.40;99.90
52415;DHT22;38340;52.964;6.086;2022-12-31T13:35:53;12.40;99.90
52415;DHT22;38340;52.964;6.086;2022-12-31T13:46:12;12.40;99.90
52415;DHT22;38340;52.964;6.086;2022-12-31T13:49:08;12.40;99.90
52415;DHT22;38340;52.964;6.086;2022-12-31T13:51:55;12.40;99.90
52415;DHT22;38340;52.964;6.086;2022-12-31T13:54:29;12.30;99.90
52415;DHT22;38340;52.964;6.086;2022-12-31T13:57:03;12.30;99.90
52415;DHT22;38340;52.964;6.086;2022-12-31T13:59:42;12.40;99.90
52415;DHT22;38340;52.964;6.086;2022-12-31T14:02:34;12.30;99.90
52415;DHT22;38340;52.964;6.086;2022-12-31T14:07:46;12.50;99.90
52415;DHT22;38340;52.964;6.086;2022-12-31T14:10:16;12.50;99.90
52415;DHT22;38340;52.964;6.086;2022-12-31T14:15:37;12.40;99.90
52415;DHT22;38340;52.964;6.086;2022-12-31T14:23:19;12.30;99.90
52415;DHT22;38340;52.964;6.086;2022-12-31T14:25:52;12.50;99.90
52415;DHT22;38340;52.964;6.086;2022-12-31T14:28:33;12.50;99.90
52415;DHT22;38340;52.964;6.086;2022-12-31T14:31:25;12.30;99.90
52415;DHT22;38340;52.964;6.086;2022-12-31T14:34:13;12.30;99.90
52415;DHT22;38340;52.964;6.086;2022-12-31T14:42:33;12.30;99.90
52415;DHT22;38340;52.964;6.086;2022-12-31T14:45:35;12.30;99.90
52415;DHT22;38340;52.964;6.086;2022-12-31T14:50:48;12.20;99.90
52415;DHT22;38340;52.964;6.086;2022-12-31T14:53:21;12.00;99.90
52415;DHT22;38340;52.964;6.086;2022-12-31T14:58:36;12.10;99.90
52415;DHT22;38340;52.964;6.086;2022-12-31T15:09:19;12.00;99.90
52415;DHT22;38340;52.964;6.086;2022-12-31T15:12:01;12.10;99.90
52415;DHT22;38340;52.964;6.086;2022-12-31T15:22:51;12.30;99.90
52415;DHT22;38340;52.964;6.086;2022-12-31T15:25:30;12.40;99.90
52415;DHT22;38340;52.964;6.086;2022-12-31T15:28:02;12.60;99.90
52415;DHT22;38340;52.964;6.086;2022-12-31T15:33:03;12.70;99.90
52415;DHT22;38340;52.964;6.086;2022-12-31T15:35:42;12.90;99.90
52415;DHT22;38340;52.964;6.086;2022-12-31T15:40:50;12.60;99.90
52415;DHT22;38340;52.964;6.086;2022-12-31T15:43:38;12.60;99.90
52415;DHT22;38340;52.964;6.086;2022-12-31T15:46:24;12.70;99.90
52415;DHT22;38340;52.964;6.086;2022-12-31T15:48:57;12.60;99.90
52415;DHT22;38340;52.964;6.086;2022-12-31T15:51:31;12.50;99.90
52415;DHT22;38340;52.964;6.086;2022-12-31T15:53:58;12.60;99.90
52415;DHT22;38340;52.964;6.086;2022-12-31T15:56:36;12.40;99.90
52415;DHT22;38340;52.964;6.086;2022-12-31T15:59:09;12.50;99.90
52415;DHT22;38340;52.964;6.086;2022-12-31T16:01:39;12.60;99.90
52415;DHT22;38340;52.964;6.086;2022-12-31T16:04:14;12.30;99.90
52415;DHT22;38340;52.964;6.086;2022-12-31T16:06:40;12.60;99.90
52415;DHT22;38340;52.964;6.086;2022-12-31T16:09:08;12.30;99.90
52415;DHT22;38340;52.964;6.086;2022-12-31T16:11:42;12.50;99.90
52415;DHT22;38340;52.964;6.086;2022-12-31T16:14:20;12.30;99.90
52415;DHT22;38340;52.964;6.086;2022-12-31T16:16:55;12.60;99.90
52415;DHT22;38340;52.964;6.086;2022-12-31T16:19:41;12.40;99.90
52415;DHT22;38340;52.964;6.086;2022-12-31T16:22:24;12.50;99.90
52415;DHT22;38340;52.964;6.086;2022-12-31T16:24:58;12.40;99.90
52415;DHT22;38340;52.964;6.086;2022-12-31T16:27:26;12.40;99.90
52415;DHT22;38340;52.964;6.086;2022-12-31T16:30:02;12.60;99.90
52415;DHT22;38340;52.964;6.086;2022-12-31T16:32:34;12.40;99.90
52415;DHT22;38340;52.964;6.086;2022-12-31T16:35:00;12.60;99.90
52415;DHT22;38340;52.964;6.086;2022-12-31T16:37:26;12.70;99.90
52415;DHT22;38340;52.964;6.086;2022-12-31T16:42:22;12.80;99.90
52415;DHT22;38340;52.964;6.086;2022-12-31T16:44:50;12.80;99.90
52415;DHT22;38340;52.964;6.086;2022-12-31T16:47:22;12.60;99.90
52415;DHT22;38340;52.964;6.086;2022-12-31T16:50:15;12.80;99.90
52415;DHT22;38340;52.964;6.086;2022-12-31T16:52:45;12.80;99.90
52415;DHT22;38340;52.964;6.086;2022-12-31T16:55:17;12.90;99.90
52415;DHT22;38340;52.964;6.086;2022-12-31T16:57:48;12.70;99.90
52415;DHT22;38340;52.964;6.086;2022-12-31T17:00:18;12.80;99.90
52415;DHT22;38340;52.964;6.086;2022-12-31T17:05:24;12.60;99.90
52415;DHT22;38340;52.964;6.086;2022-12-31T17:07:50;12.70;99.90
52415;DHT22;38340;52.964;6.086;2022-12-31T17:10:32;12.70;99.90
52415;DHT22;38340;52.964;6.086;2022-12-31T17:13:00;12.90;99.90
52415;DHT22;38340;52.964;6.086;2022-12-31T17:15:41;13.00;99.90
52415;DHT22;38340;52.964;6.086;2022-12-31T17:18:24;12.90;99.90
52415;DHT22;38340;52.964;6.086;2022-12-31T17:20:51;12.90;99.90
52415;DHT22;38340;52.964;6.086;2022-12-31T17:23:30;12.90;99.90
52415;DHT22;38340;52.964;6.086;2022-12-31T17:26:21;13.20;99.90
52415;DHT22;38340;52.964;6.086;2022-12-31T17:28:49;13.20;99.90
52415;DHT22;38340;52.964;6.086;2022-12-31T17:31:33;13.00;99.90
52415;DHT22;38340;52.964;6.086;2022-12-31T17:34:19;13.00;99.90
52415;DHT22;38340;52.964;6.086;2022-12-31T17:39:23;13.20;99.90
52415;DHT22;38340;52.964;6.086;2022-12-31T17:41:51;13.30;99.90
52415;DHT22;38340;52.964;6.086;2022-12-31T17:44:29;13.10;99.90
52415;DHT22;38340;52.964;6.086;2022-12-31T17:46:57;13.30;99.90
52415;DHT22;38340;52.964;6.086;2022-12-31T17:49:28;13.30;99.90
52415;DHT22;38340;52.964;6.086;2022-12-31T17:51:54;13.10;99.90
52415;DHT22;38340;52.964;6.086;2022-12-31T17:54:20;13.30;99.90
52415;DHT22;38340;52.964;6.086;2022-12-31T17:56:46;13.30;99.90
52415;DHT22;38340;52.964;6.086;2022-12-31T17:59:23;13.40;99.90
52415;DHT22;38340;52.964;6.086;2022-12-31T18:01:49;13.30;99.90
52415;DHT22;38340;52.964;6.086;2022-12-31T18:04:17;13.30;99.90
52415;DHT22;38340;52.964;6.086;2022-12-31T18:06:43;13.40;99.90
52415;DHT22;38340;52.964;6.086;2022-12-31T18:09:09;13.40;99.90
52415;DHT22;38340;52.964;6.086;2022-12-31T18:11:36;13.60;99.90
52415;DHT22;38340;52.964;6.086;2022-12-31T18:14:03;13.60;99.90
52415;DHT22;38340;52.964;6.086;2022-12-31T18:16:29;13.60;99.90
52415;DHT22;38340;52.964;6.086;2022-12-31T18:18:56;13.70;99.90
52415;DHT22;38340;52.964;6.086;2022-12-31T18:21:32;13.70;99.90
52415;DHT22;38340;52.964;6.086;2022-12-31T18:24:00;13.70;99.90
52415;DHT22;38340;52.964;6.086;2022-12-31T18:26:27;13.80;99.90
52415;DHT22;38340;52.964;6.086;2022-12-31T18:28:52;13.70;99.90
52415;DHT22;38340;52.964;6.086;2022-12-31T18:31:23;13.70;99.90
52415;DHT22;38340;52.964;6.086;2022-12-31T18:33:51;13.70;99.90
52415;DHT22;38340;52.964;6.086;2022-12-31T18:36:19;13.90;99.90
52415;DHT22;38340;52.964;6.086;2022-12-31T18:38:44;13.90;99.90
52415;DHT22;38340;52.964;6.086;2022-12-31T18:41:22;13.90;99.90
52415;DHT22;38340;52.964;6.086;2022-12-31T18:43:49;13.90;99.90
52415;DHT22;38340;52.964;6.086;2022-12-31T18:46:17;14.00;99.90
52415;DHT22;38340;52.964;6.086;2022-12-31T18:48:43;14.00;99.90
52415;DHT22;38340;52.964;6.086;2022-12-31T18:51:16;13.90;99.90
52415;DHT22;38340;52.964;6.086;2022-12-31T18:53:43;14.00;99.90
52415;DHT22;38340;52.964;6.086;2022-12-31T18:56:14;14.10;99.90
52415;DHT22;38340;52.964;6.086;2022-12-31T18:58:40;14.10;99.90
52415;DHT22;38340;52.964;6.086;2022-12-31T19:01:27;14.10;99.90
52415;DHT22;38340;52.964;6.086;2022-12-31T19:04:02;14.10;99.90
52415;DHT22;38340;52.964;6.086;2022-12-31T19:06:29;14.10;99.90
52415;DHT22;38340;52.964;6.086;2022-12-31T19:08:55;14.20;99.90
52415;DHT22;38340;52.964;6.086;2022-12-31T19:11:21;14.20;99.90
52415;DHT22;38340;52.964;6.086;2022-12-31T19:13:48;14.20;99.90
52415;DHT22;38340;52.964;6.086;2022-12-31T19:16:14;14.30;99.90
52415;DHT22;38340;52.964;6.086;2022-12-31T19:18:40;14.30;99.90
52415;DHT22;38340;52.964;6.086;2022-12-31T19:21:15;14.40;99.90
52415;DHT22;38340;52.964;6.086;2022-12-31T19:23:41;14.40;99.90
52415;DHT22;38340;52.964;6.086;2022-12-31T19:26:14;14.40;99.90
52415;DHT22;38340;52.964;6.086;2022-12-31T19:28:40;14.40;99.90
52415;DHT22;38340;52.964;6.086;2022-12-31T19:31:06;14.40;99.90
52415;DHT22;38340;52.964;6.086;2022-12-31T19:33:32;14.50;99.90
52415;DHT22;38340;52.964;6.086;2022-12-31T19:35:57;14.50;99.90
52415;DHT22;38340;52.964;6.086;2022-12-31T19:38:25;14.50;99.90
52415;DHT22;38340;52.964;6.086;2022-12-31T19:40:52;14.50;99.90
52415;DHT22;38340;52.964;6.086;2022-12-31T19:43:19;14.50;99.90
52415;DHT22;38340;52.964;6.086;2022-12-31T19:45:46;14.50;99.90
52415;DHT22;38340;52.964;6.086;2022-12-31T19:48:17;14.40;99.90
52415;DHT22;38340;52.964;6.086;2022-12-31T19:50:46;14.40;99.90
52415;DHT22;38340;52.964;6.086;2022-12-31T19:53:14;14.50;99.90
52415;DHT22;38340;52.964;6.086;2022-12-31T19:55:43;14.50;99.90